Time;durP1;ratioP1;P1;durP2;ratioP2;P2;SDS_P1;SDS_P2;PMS_P1;PMS_P2;Temp;Humidity;BMP_temperature;BMP_pressure;BME280_temperature;BME280_humidity;BME280_pressure;Samples;Min_cycle;Max_cycle;Signal;HPM_P1;HPM_P2
2021/11/13 00:01:20;;;;;;;16.58;4.68;;;11.40;99.90;;;;;;5056461;28;20021;-65
2021/11/13 00:03:46;;;;;;;24.20;5.32;;;11.60;99.90;;;;;;5056629;28;20025;-65
2021/11/13 00:06:12;;;;;;;13.63;4.70;;;11.50;99.90;;;;;;5056469;28;20049;-65
2021/11/13 00:08:38;;;;;;;33.33;6.97;;;11.50;99.90;;;;;;5056240;28;20021;-65
2021/11/13 00:11:05;;;;;;;19.42;5.05;;;11.30;99.90;;;;;;5059917;28;20032;-65
2021/11/13 00:13:31;;;;;;;25.00;5.63;;;11.50;99.90;;;;;;5060339;28;20508;-65
2021/11/13 00:15:57;;;;;;;19.60;5.40;;;11.40;99.90;;;;;;5060171;28;20036;-65
2021/11/13 00:18:23;;;;;;;15.15;3.97;;;11.30;99.90;;;;;;5060335;28;20053;-65
2021/11/13 00:20:50;;;;;;;31.55;8.52;;;11.40;99.90;;;;;;5059114;28;20036;-65
2021/11/13 00:23:18;;;;;;;34.75;6.40;;;11.50;99.90;;;;;;5060262;28;20017;-65
2021/11/13 00:25:43;;;;;;;27.55;6.13;;;11.30;99.90;;;;;;5060111;28;20021;-65
2021/11/13 00:28:09;;;;;;;32.70;6.85;;;11.50;99.90;;;;;;5060236;28;20068;-65
2021/11/13 00:30:35;;;;;;;26.33;5.57;;;11.50;99.90;;;;;;5059992;28;20539;-65
2021/11/13 00:33:02;;;;;;;21.23;5.00;;;11.50;99.90;;;;;;5060130;28;20029;-65
2021/11/13 00:35:28;;;;;;;29.83;5.75;;;11.30;99.90;;;;;;5059723;28;20127;-65
2021/11/13 00:37:54;;;;;;;32.33;6.57;;;11.60;99.90;;;;;;5060027;28;20037;-65
2021/11/13 00:40:20;;;;;;;30.95;5.38;;;11.40;99.90;;;;;;5059897;28;20017;-65
2021/11/13 00:42:47;;;;;;;36.38;6.43;;;11.60;99.90;;;;;;5059847;28;20029;-65
2021/11/13 00:45:14;;;;;;;23.92;6.55;;;11.50;99.90;;;;;;5059501;28;20040;-65
2021/11/13 00:47:41;;;;;;;22.85;4.70;;;11.50;99.90;;;;;;5060053;28;20029;-65
2021/11/13 00:50:10;;;;;;;32.40;6.65;;;11.60;99.90;;;;;;5059668;28;20024;-65
2021/11/13 00:52:36;;;;;;;29.40;6.15;;;11.50;99.90;;;;;;5059887;28;20481;-65
2021/11/13 00:55:03;;;;;;;21.00;5.30;;;11.50;99.90;;;;;;5059629;28;20021;-65
2021/11/13 00:57:28;;;;;;;21.58;4.97;;;11.50;99.90;;;;;;5059780;28;20571;-65
2021/11/13 00:59:55;;;;;;;23.85;5.25;;;11.50;99.90;;;;;;5059198;28;20453;-65
2021/11/13 01:02:21;;;;;;;21.38;6.22;;;11.60;99.90;;;;;;5059727;28;20392;-65
2021/11/13 01:04:47;;;;;;;22.20;4.93;;;11.60;99.90;;;;;;5059301;28;20381;-65
2021/11/13 01:07:13;;;;;;;25.58;4.88;;;11.60;99.90;;;;;;5059486;28;20036;-65
2021/11/13 01:09:38;;;;;;;24.52;5.03;;;11.60;99.90;;;;;;5059198;28;20021;-65
2021/11/13 01:12:05;;;;;;;30.17;5.70;;;11.50;99.90;;;;;;5059657;28;20029;-65
2021/11/13 01:14:36;;;;;;;35.75;6.10;;;11.60;99.90;;;;;;5058788;28;20485;-65
2021/11/13 01:17:02;;;;;;;18.10;4.93;;;11.70;99.90;;;;;;5058086;28;20040;-64
2021/11/13 01:19:28;;;;;;;24.00;5.82;;;11.50;99.90;;;;;;5059208;28;20017;-65
2021/11/13 01:21:54;;;;;;;28.27;6.43;;;11.50;99.90;;;;;;5058387;28;20500;-65
2021/11/13 01:24:20;;;;;;;33.13;5.72;;;11.60;99.90;;;;;;5058896;28;20055;-65
2021/11/13 01:26:46;;;;;;;18.90;4.68;;;11.50;99.90;;;;;;5059227;28;20025;-65
2021/11/13 01:29:12;;;;;;;24.83;5.78;;;11.50;99.90;;;;;;5058664;28;20009;-65
2021/11/13 01:31:38;;;;;;;26.17;5.80;;;11.50;99.90;;;;;;5059122;28;20032;-65
2021/11/13 01:34:04;;;;;;;23.13;4.93;;;11.30;99.90;;;;;;5058933;28;20902;-65
2021/11/13 01:36:30;;;;;;;17.00;3.90;;;11.40;99.90;;;;;;5058468;28;20075;-65
2021/11/13 01:38:56;;;;;;;19.00;4.97;;;11.60;99.90;;;;;;5058654;28;20037;-65
2021/11/13 01:41:22;;;;;;;30.35;6.20;;;11.50;99.90;;;;;;5058956;28;20037;-65
2021/11/13 01:43:48;;;;;;;24.73;5.50;;;11.50;99.90;;;;;;5058421;28;20013;-65
2021/11/13 01:46:14;;;;;;;31.73;5.50;;;11.40;99.90;;;;;;5058793;28;20513;-65
2021/11/13 01:48:40;;;;;;;20.52;4.97;;;11.50;99.90;;;;;;5058601;28;20099;-65
2021/11/13 01:51:35;;;;;;;18.65;5.45;;;11.50;99.90;;;;;;5058926;28;20452;-65
2021/11/13 01:54:06;;;;;;;20.58;5.32;;;11.80;99.90;;;;;;5053803;28;20032;-65
2021/11/13 01:56:33;;;;;;;30.13;5.90;;;11.60;99.90;;;;;;5057263;28;20082;-65
2021/11/13 01:59:00;;;;;;;24.38;5.78;;;11.60;99.90;;;;;;5058315;28;20052;-65
2021/11/13 02:01:27;;;;;;;31.52;7.18;;;11.60;99.90;;;;;;5058371;28;20025;-65
2021/11/13 02:03:53;;;;;;;38.25;6.65;;;11.30;99.90;;;;;;5058387;28;20082;-65
2021/11/13 02:06:20;;;;;;;24.50;4.75;;;11.50;99.90;;;;;;5056901;28;20036;-65
2021/11/13 02:08:47;;;;;;;26.38;5.57;;;11.50;99.90;;;;;;5058244;28;20806;-65
2021/11/13 02:11:16;;;;;;;36.03;7.07;;;11.60;99.90;;;;;;5058172;28;20033;-65
2021/11/13 02:13:42;;;;;;;27.23;5.82;;;11.50;99.90;;;;;;5056727;28;20021;-65
2021/11/13 02:16:09;;;;;;;22.63;5.60;;;11.50;99.90;;;;;;5057935;28;20021;-64
2021/11/13 02:18:37;;;;;;;29.73;6.07;;;11.50;99.90;;;;;;5058166;28;20108;-65
2021/11/13 02:21:03;;;;;;;27.23;5.20;;;11.50;99.90;;;;;;5058164;28;20021;-65
2021/11/13 02:23:29;;;;;;;25.33;5.65;;;11.50;99.90;;;;;;5057973;28;20052;-65
2021/11/13 02:25:55;;;;;;;19.77;4.32;;;11.60;99.90;;;;;;5057867;28;20032;-65
2021/11/13 02:28:24;;;;;;;18.00;6.07;;;11.60;99.90;;;;;;5057848;28;20036;-65
2021/11/13 02:30:52;;;;;;;29.42;5.82;;;11.50;99.90;;;;;;5057819;28;20362;-65
2021/11/13 02:33:19;;;;;;;23.98;4.60;;;11.60;99.90;;;;;;5057807;28;20104;-65
2021/11/13 02:35:46;;;;;;;27.23;7.13;;;11.60;99.90;;;;;;5057520;28;20052;-65
2021/11/13 02:38:21;;;;;;;34.10;6.38;;;11.50;99.90;;;;;;5057604;28;20039;-65
2021/11/13 02:40:50;;;;;;;27.10;6.30;;;11.50;99.90;;;;;;5057540;28;20028;-65
2021/11/13 02:43:17;;;;;;;30.33;5.30;;;11.50;99.90;;;;;;5057345;28;20028;-65
2021/11/13 02:45:45;;;;;;;28.58;6.10;;;11.50;99.90;;;;;;5057475;28;20020;-65
2021/11/13 02:48:12;;;;;;;23.88;5.38;;;11.50;99.90;;;;;;5057509;28;20047;-65
2021/11/13 02:50:38;;;;;;;27.50;6.60;;;11.50;99.90;;;;;;5057545;28;20090;-65
2021/11/13 02:53:12;;;;;;;33.88;6.13;;;11.50;99.90;;;;;;5057383;28;20401;-65
2021/11/13 02:55:38;;;;;;;34.28;6.60;;;11.60;99.90;;;;;;5057470;28;20055;-65
2021/11/13 02:58:04;;;;;;;34.58;5.93;;;11.50;99.90;;;;;;5057230;28;20025;-65
2021/11/13 03:00:30;;;;;;;25.80;6.03;;;11.70;99.90;;;;;;5057319;28;20473;-64
2021/11/13 03:02:56;;;;;;;22.05;5.20;;;11.60;99.90;;;;;;5057144;28;20065;-65
2021/11/13 03:05:25;;;;;;;23.27;5.32;;;11.60;99.90;;;;;;5057186;28;20104;-65
2021/11/13 03:07:53;;;;;;;18.83;3.58;;;11.60;99.90;;;;;;5056805;28;20021;-65
2021/11/13 03:10:20;;;;;;;18.10;3.83;;;11.60;99.90;;;;;;5057335;28;20082;-65
2021/11/13 03:12:47;;;;;;;9.07;3.20;;;11.30;99.90;;;;;;5056979;28;20432;-65
2021/11/13 03:15:16;;;;;;;7.50;2.47;;;11.50;99.90;;;;;;5056772;28;20112;-64
2021/11/13 03:17:43;;;;;;;7.65;2.33;;;11.80;99.90;;;;;;5056850;28;20112;-65
2021/11/13 03:20:13;;;;;;;7.57;2.03;;;11.60;99.90;;;;;;5057100;28;20096;-65
2021/11/13 03:22:39;;;;;;;9.30;3.65;;;11.70;99.90;;;;;;5056989;28;20017;-65
2021/11/13 03:25:11;;;;;;;9.13;2.33;;;11.60;99.90;;;;;;5057173;28;20544;-64
2021/11/13 03:27:38;;;;;;;11.25;3.38;;;11.50;99.90;;;;;;5056822;28;20106;-64
2021/11/13 03:30:07;;;;;;;12.73;3.33;;;11.70;99.90;;;;;;5056908;28;20021;-65
2021/11/13 03:32:34;;;;;;;29.80;7.45;;;11.30;99.90;;;;;;5056896;28;20072;-65
2021/11/13 03:35:02;;;;;;;24.02;5.18;;;11.50;99.90;;;;;;5056905;28;20434;-65
2021/11/13 03:37:29;;;;;;;21.75;4.25;;;11.40;99.90;;;;;;5056177;28;20036;-65
2021/11/13 03:39:55;;;;;;;22.85;5.25;;;11.40;99.90;;;;;;5056858;28;20025;-64
2021/11/13 03:42:22;;;;;;;28.38;6.38;;;11.40;99.90;;;;;;5056593;28;20021;-65
2021/11/13 03:44:48;;;;;;;22.45;4.65;;;11.40;99.90;;;;;;5056032;28;20366;-65
2021/11/13 03:47:14;;;;;;;14.18;4.10;;;11.40;99.90;;;;;;5056480;28;20107;-65
2021/11/13 03:49:40;;;;;;;15.00;3.65;;;11.40;99.90;;;;;;5056788;28;20035;-65
2021/11/13 03:52:06;;;;;;;22.15;5.25;;;11.30;99.90;;;;;;5056506;28;20108;-65
2021/11/13 03:54:33;;;;;;;15.23;3.28;;;11.30;99.90;;;;;;5056863;28;20029;-65
2021/11/13 03:56:59;;;;;;;17.63;4.32;;;11.50;99.90;;;;;;5054999;28;20028;-65
2021/11/13 03:59:27;;;;;;;11.88;2.95;;;11.20;99.90;;;;;;5056400;28;20134;-65
2021/11/13 04:01:53;;;;;;;10.43;3.13;;;11.30;99.90;;;;;;5056316;28;20498;-65
2021/11/13 04:04:19;;;;;;;16.27;3.17;;;11.10;99.90;;;;;;5056441;28;20025;-65
2021/11/13 04:06:45;;;;;;;13.63;3.53;;;11.00;99.90;;;;;;5056238;28;20513;-65
2021/11/13 04:09:11;;;;;;;10.40;2.70;;;10.90;99.90;;;;;;5056394;28;20025;-65
2021/11/13 04:11:36;;;;;;;11.60;3.28;;;10.80;99.90;;;;;;5056305;28;20048;-65
2021/11/13 04:14:02;;;;;;;11.05;3.83;;;10.80;99.90;;;;;;5056463;28;20029;-65
2021/11/13 04:16:28;;;;;;;14.02;3.42;;;10.90;99.90;;;;;;5056012;28;20021;-65
2021/11/13 04:18:54;;;;;;;9.55;3.08;;;10.90;99.90;;;;;;5056243;28;20467;-65
2021/11/13 04:21:21;;;;;;;13.80;3.40;;;10.70;99.90;;;;;;5056268;28;20021;-64
2021/11/13 04:23:47;;;;;;;17.38;3.30;;;10.80;99.90;;;;;;5056206;28;20474;-65
2021/11/13 04:26:13;;;;;;;12.43;2.88;;;10.70;99.90;;;;;;5056403;28;20025;-65
2021/11/13 04:28:39;;;;;;;8.55;2.67;;;10.70;99.90;;;;;;5056111;28;20499;-65
2021/11/13 04:31:05;;;;;;;12.50;2.65;;;10.50;99.90;;;;;;5056460;28;20393;-65
2021/11/13 04:33:34;;;;;;;9.05;3.13;;;10.40;99.90;;;;;;5056357;28;20029;-64
2021/11/13 04:38:29;;;;;;;5.88;2.03;;;10.20;99.90;;;;;;5056147;28;20124;-65
2021/11/13 04:40:55;;;;;;;10.20;2.55;;;10.10;99.90;;;;;;5056248;28;20025;-65
2021/11/13 04:43:21;;;;;;;7.47;2.72;;;10.20;99.90;;;;;;5055838;28;20495;-65
2021/11/13 04:45:46;;;;;;;7.47;2.58;;;10.20;99.90;;;;;;5056208;28;20381;-65
2021/11/13 04:48:12;;;;;;;12.85;2.25;;;10.30;99.90;;;;;;5055963;28;20088;-64
2021/11/13 04:50:38;;;;;;;9.10;3.10;;;10.10;99.90;;;;;;5056214;28;20063;-64
2021/11/13 04:53:05;;;;;;;9.27;2.45;;;9.90;99.90;;;;;;5054665;28;20171;-64
2021/11/13 04:55:31;;;;;;;4.65;2.08;;;9.80;99.90;;;;;;5056189;28;20482;-65
2021/11/13 04:57:58;;;;;;;5.32;1.95;;;9.70;99.90;;;;;;5058789;28;20032;-65
2021/11/13 05:00:27;;;;;;;5.68;2.05;;;9.60;99.90;;;;;;5059568;28;20104;-64
2021/11/13 05:02:54;;;;;;;9.05;3.00;;;9.70;99.90;;;;;;5059438;28;20025;-65
2021/11/13 05:05:21;;;;;;;5.30;1.88;;;9.50;99.90;;;;;;5059584;28;20018;-64
2021/11/13 05:07:47;;;;;;;7.40;2.10;;;9.50;99.90;;;;;;5059152;28;20029;-64
2021/11/13 05:10:14;;;;;;;5.13;2.00;;;9.40;99.90;;;;;;5059617;28;20025;-65
2021/11/13 05:12:40;;;;;;;3.65;1.67;;;9.30;99.90;;;;;;5059399;28;20037;-65
2021/11/13 05:15:07;;;;;;;5.07;2.47;;;9.20;99.90;;;;;;5059110;28;20021;-64
2021/11/13 05:17:33;;;;;;;3.90;1.98;;;9.10;99.90;;;;;;5059229;28;20454;-64
2021/11/13 05:20:01;;;;;;;9.63;2.30;;;9.00;99.90;;;;;;5059374;28;20385;-64
2021/11/13 05:22:27;;;;;;;10.32;3.00;;;8.90;99.90;;;;;;5058914;28;20090;-64
2021/11/13 05:24:53;;;;;;;7.75;2.10;;;8.90;99.90;;;;;;5059251;28;20014;-64
2021/11/13 05:27:19;;;;;;;8.18;3.35;;;8.90;99.90;;;;;;5058933;28;20029;-65
2021/11/13 05:29:45;;;;;;;9.40;2.00;;;8.80;99.90;;;;;;5057611;28;20112;-64
2021/11/13 05:32:11;;;;;;;7.25;1.88;;;8.80;99.90;;;;;;5058893;28;20481;-64
2021/11/13 05:34:37;;;;;;;7.43;2.17;;;8.60;99.90;;;;;;5059110;28;20090;-65
2021/11/13 05:37:03;;;;;;;;;;;8.60;99.90;;;;;;5059000;28;20412;-64
2021/11/13 05:39:29;;;;;;;11.82;2.20;;;8.40;99.90;;;;;;5059171;28;19927;-64
2021/11/13 05:41:55;;;;;;;4.18;1.88;;;8.40;99.90;;;;;;5058780;28;20025;-64
2021/11/13 05:44:20;;;;;;;4.53;1.88;;;8.50;99.90;;;;;;5058632;28;20040;-65
2021/11/13 05:46:50;;;;;;;9.35;3.30;;;8.30;99.90;;;;;;5058591;28;20022;-64
2021/11/13 05:49:16;;;;;;;6.78;1.95;;;8.40;99.90;;;;;;5058888;28;20120;-64
2021/11/13 05:51:42;;;;;;;6.97;1.98;;;8.20;99.90;;;;;;5058368;28;20076;-64
2021/11/13 05:54:08;;;;;;;3.90;1.80;;;8.40;99.90;;;;;;5058833;28;20122;-64
2021/11/13 05:56:34;;;;;;;4.53;2.17;;;8.10;99.90;;;;;;5058527;28;20396;-65
2021/11/13 05:59:00;;;;;;;9.02;2.75;;;8.10;99.90;;;;;;5058395;28;20104;-65
2021/11/13 06:01:26;;;;;;;12.57;3.13;;;8.00;99.90;;;;;;5058365;28;20029;-64
2021/11/13 06:03:52;;;;;;;2.85;2.00;;;8.00;99.90;;;;;;5058637;28;20025;-64
2021/11/13 06:06:17;;;;;;;;;;;8.30;99.90;;;;;;5058616;28;20100;-64
2021/11/13 06:08:43;;;;;;;3.83;1.98;;;8.20;99.90;;;;;;5058097;28;19908;-64
2021/11/13 06:11:09;;;;;;;;;;;7.90;99.90;;;;;;5058600;28;20116;-64
2021/11/13 06:13:35;;;;;;;12.45;2.25;;;8.00;99.90;;;;;;5058367;28;19905;-64
2021/11/13 06:16:03;;;;;;;4.35;2.13;;;7.90;99.90;;;;;;5056697;28;20512;-64
2021/11/13 06:18:32;;;;;;;6.57;1.95;;;8.00;99.90;;;;;;5058137;28;20889;-64
2021/11/13 06:20:58;;;;;;;12.07;3.05;;;8.10;99.90;;;;;;5058082;28;20025;-64
2021/11/13 06:23:23;;;;;;;;;;;8.20;99.90;;;;;;5058433;28;20041;-64
2021/11/13 06:25:49;;;;;;;6.68;1.90;;;8.20;99.90;;;;;;5057988;28;19905;-64
2021/11/13 06:28:15;;;;;;;4.95;1.88;;;8.30;99.90;;;;;;5057818;28;20021;-64
2021/11/13 06:30:41;;;;;;;;;;;8.10;99.90;;;;;;5058189;28;20079;-64
2021/11/13 06:33:07;;;;;;;11.20;2.90;;;8.10;99.90;;;;;;5057954;28;19999;-64
2021/11/13 06:35:33;;;;;;;10.45;2.45;;;8.20;99.90;;;;;;5057722;28;20037;-64
2021/11/13 06:37:59;;;;;;;8.48;2.45;;;8.30;99.90;;;;;;5057641;28;20075;-64
2021/11/13 06:40:24;;;;;;;;;;;8.20;99.90;;;;;;5058057;28;20393;-64
2021/11/13 06:42:50;;;;;;;4.82;2.85;;;8.10;99.90;;;;;;5057809;28;19904;-64
2021/11/13 06:45:16;;;;;;;5.65;2.03;;;8.20;99.90;;;;;;5057277;28;20465;-64
2021/11/13 06:47:42;;;;;;;6.25;2.45;;;8.40;99.90;;;;;;5057631;28;20017;-64
2021/11/13 06:50:09;;;;;;;9.90;1.75;;;8.30;99.90;;;;;;5057474;28;20436;-64
2021/11/13 06:52:35;;;;;;;4.47;2.35;;;8.30;99.90;;;;;;5057626;28;20083;-64
2021/11/13 06:55:02;;;;;;;11.20;2.55;;;8.50;99.90;;;;;;5057486;28;20126;-64
2021/11/13 06:57:28;;;;;;;7.13;2.50;;;8.50;99.90;;;;;;5057297;28;20029;-65
2021/11/13 06:59:54;;;;;;;5.15;2.08;;;8.50;99.90;;;;;;5057045;28;20048;-64
2021/11/13 07:02:20;;;;;;;9.55;2.45;;;8.30;99.90;;;;;;5057376;28;20132;-64
2021/11/13 07:04:46;;;;;;;9.88;2.72;;;8.10;99.90;;;;;;5057101;28;20059;-64
2021/11/13 07:07:12;;;;;;;7.13;2.78;;;8.30;99.90;;;;;;5057250;28;20029;-64
2021/11/13 07:09:38;;;;;;;5.13;2.70;;;8.30;99.90;;;;;;5057061;28;20024;-64
2021/11/13 07:12:05;;;;;;;9.27;2.78;;;8.30;99.90;;;;;;5057381;28;20040;-64
2021/11/13 07:14:31;;;;;;;6.93;2.22;;;8.40;99.90;;;;;;5056807;28;20025;-64
2021/11/13 07:16:57;;;;;;;;;;;8.40;99.90;;;;;;5057284;28;20046;-64
2021/11/13 07:19:23;;;;;;;8.27;1.83;;;8.50;99.90;;;;;;5056241;28;19905;-64
2021/11/13 07:21:48;;;;;;;;;;;8.70;99.90;;;;;;5057501;28;20473;-64
2021/11/13 07:24:15;;;;;;;9.68;2.50;;;8.50;99.90;;;;;;5056873;28;19905;-64
2021/11/13 07:26:41;;;;;;;10.48;2.28;;;8.40;99.90;;;;;;5056940;28;20021;-64
2021/11/13 07:29:09;;;;;;;3.90;2.00;;;8.40;99.90;;;;;;5056552;28;20051;-64
2021/11/13 07:31:35;;;;;;;3.03;1.83;;;8.40;99.90;;;;;;5057173;28;20040;-64
2021/11/13 07:34:02;;;;;;;9.77;3.15;;;8.30;99.90;;;;;;5056839;28;20120;-64
2021/11/13 07:36:28;;;;;;;2.72;1.70;;;8.60;99.90;;;;;;5056607;28;20044;-64
2021/11/13 07:38:54;;;;;;;6.18;2.10;;;8.50;99.90;;;;;;5055331;28;20025;-64
2021/11/13 07:41:23;;;;;;;5.78;2.05;;;8.60;99.90;;;;;;5056585;28;20044;-64
2021/11/13 07:43:50;;;;;;;9.10;4.40;;;8.60;99.90;;;;;;5056221;28;20056;-64
2021/11/13 07:46:16;;;;;;;5.40;2.50;;;8.80;99.90;;;;;;5056538;28;20100;-64
2021/11/13 07:48:42;;;;;;;5.60;2.25;;;8.70;99.90;;;;;;5056516;28;20094;-64
2021/11/13 07:51:08;;;;;;;6.05;2.45;;;8.80;99.90;;;;;;5056469;28;20040;-64
2021/11/13 07:53:35;;;;;;;5.60;2.33;;;9.00;99.90;;;;;;5056635;28;20104;-64
2021/11/13 07:56:02;;;;;;;4.55;1.95;;;9.10;99.90;;;;;;5056693;28;20104;-64
2021/11/13 07:58:28;;;;;;;4.90;1.85;;;9.00;99.90;;;;;;5056102;28;20025;-64
2021/11/13 08:00:55;;;;;;;2.65;1.88;;;9.20;99.90;;;;;;5056627;28;20021;-64
2021/11/13 08:03:21;;;;;;;9.85;2.10;;;9.10;99.90;;;;;;5056360;28;20021;-64
2021/11/13 08:05:47;;;;;;;6.40;2.75;;;9.30;99.90;;;;;;5056470;28;20056;-64
2021/11/13 08:08:13;;;;;;;6.88;2.22;;;9.10;99.90;;;;;;5056153;28;20021;-64
2021/11/13 08:10:42;;;;;;;5.95;2.83;;;9.30;99.90;;;;;;5056539;28;20048;-64
2021/11/13 08:13:12;;;;;;;7.30;2.28;;;9.60;99.90;;;;;;5056038;28;20021;-64
2021/11/13 08:15:39;;;;;;;6.85;1.90;;;9.50;99.90;;;;;;5056174;28;20037;-64
2021/11/13 08:18:05;;;;;;;7.85;2.65;;;9.30;99.90;;;;;;5056264;28;20051;-64
2021/11/13 08:20:31;;;;;;;3.20;1.60;;;9.40;99.90;;;;;;5056547;28;20468;-64
2021/11/13 08:22:57;;;;;;;3.15;1.77;;;9.30;99.90;;;;;;5055971;28;20400;-65
2021/11/13 08:25:23;;;;;;;3.33;2.97;;;9.40;99.90;;;;;;5056379;28;20544;-65
2021/11/13 08:27:50;;;;;;;7.22;2.40;;;9.40;99.90;;;;;;5056152;28;20046;-64
2021/11/13 08:30:16;;;;;;;3.70;1.80;;;9.50;99.90;;;;;;5056569;28;20082;-65
2021/11/13 08:32:44;;;;;;;6.35;2.47;;;9.50;99.90;;;;;;5060046;28;20051;-64
2021/11/13 08:35:11;;;;;;;5.43;1.90;;;9.50;99.90;;;;;;5059974;28;20048;-66
2021/11/13 08:37:38;;;;;;;1.98;1.77;;;9.50;99.90;;;;;;5059672;28;20025;-65
2021/11/13 08:40:06;;;;;;;3.50;1.95;;;9.60;99.90;;;;;;5060086;28;20028;-65
2021/11/13 08:42:32;;;;;;;4.35;1.70;;;9.60;99.90;;;;;;5060160;28;20028;-64
2021/11/13 08:44:58;;;;;;;4.38;1.88;;;9.80;99.90;;;;;;5059666;28;20028;-64
2021/11/13 08:47:24;;;;;;;4.82;1.70;;;10.10;99.90;;;;;;5059802;28;20029;-64
2021/11/13 08:49:52;;;;;;;1.83;1.55;;;10.40;99.90;;;;;;5059847;28;20092;-64
2021/11/13 08:52:19;;;;;;;4.25;1.85;;;10.60;99.90;;;;;;5059900;28;20025;-64
2021/11/13 08:54:49;;;;;;;1.73;1.40;;;10.90;99.90;;;;;;5059654;28;20024;-65
2021/11/13 08:57:16;;;;;;;3.80;1.77;;;11.20;99.90;;;;;;5059864;28;20025;-64
2021/11/13 08:59:42;;;;;;;4.18;1.60;;;11.80;99.90;;;;;;5059434;28;20036;-65
2021/11/13 09:02:11;;;;;;;3.55;1.88;;;11.90;99.90;;;;;;5059713;28;20025;-65
2021/11/13 09:04:41;;;;;;;3.03;1.92;;;12.30;99.90;;;;;;5059344;28;20021;-65
2021/11/13 09:07:08;;;;;;;1.58;1.40;;;12.50;99.90;;;;;;5059692;28;20021;-64
2021/11/13 09:09:36;;;;;;;4.75;1.40;;;;;;;;;;5059371;28;20017;-65
2021/11/13 09:12:04;;;;;;;3.30;2.40;;;;;;;;;;5059830;28;20064;-64
2021/11/13 09:14:32;;;;;;;4.32;1.50;;;14.10;99.90;;;;;;5059207;28;20032;-65
2021/11/13 09:17:00;;;;;;;4.88;2.00;;;14.10;99.90;;;;;;5059036;28;20028;-65
2021/11/13 09:19:26;;;;;;;5.88;1.48;;;;;;;;;;5059182;28;20032;-65
2021/11/13 09:21:53;;;;;;;3.20;1.20;;;14.70;99.90;;;;;;5057898;28;20021;-65
2021/11/13 09:24:21;;;;;;;3.83;1.88;;;14.80;99.90;;;;;;5058976;28;20437;-65
2021/11/13 09:26:48;;;;;;;3.85;1.35;;;15.30;99.90;;;;;;5057812;28;20029;-65
2021/11/13 09:29:13;;;;;;;1.73;1.20;;;14.60;99.90;;;;;;5058829;28;20025;-65
2021/11/13 09:31:42;;;;;;;2.13;1.50;;;14.70;99.90;;;;;;5059092;28;20037;-65
2021/11/13 09:34:16;;;;;;;2.65;1.30;;;14.60;99.90;;;;;;5058796;28;20427;-65
2021/11/13 09:36:42;;;;;;;1.63;1.17;;;14.80;99.90;;;;;;5058768;28;20534;-65
2021/11/13 09:39:09;;;;;;;2.80;1.02;;;15.10;99.90;;;;;;5059066;28;20025;-65
2021/11/13 09:41:35;;;;;;;1.00;0.90;;;15.10;99.90;;;;;;5058742;28;20032;-65
2021/11/13 09:44:02;;;;;;;1.10;1.00;;;14.90;99.90;;;;;;5058342;28;20071;-65
2021/11/13 09:46:28;;;;;;;1.80;0.90;;;15.20;99.90;;;;;;5057935;28;20025;-65
2021/11/13 09:48:55;;;;;;;2.10;1.00;;;16.20;99.90;;;;;;5058610;28;20078;-65
2021/11/13 09:51:22;;;;;;;1.80;1.00;;;16.30;99.90;;;;;;5057386;28;20063;-65
2021/11/13 09:53:49;;;;;;;2.88;1.10;;;16.40;99.90;;;;;;5058539;28;20055;-65
2021/11/13 09:56:16;;;;;;;1.95;1.00;;;16.40;99.90;;;;;;5058548;28;20054;-65
2021/11/13 09:58:42;;;;;;;1.38;1.27;;;16.00;99.90;;;;;;5058216;28;20028;-65
2021/11/13 10:01:09;;;;;;;1.80;1.02;;;15.70;99.90;;;;;;5058582;28;20051;-65
2021/11/13 10:03:35;;;;;;;1.05;0.70;;;15.60;99.90;;;;;;5058697;28;20017;-65
2021/11/13 10:06:05;;;;;;;2.97;0.90;;;15.60;99.90;;;;;;5058374;28;20032;-65
2021/11/13 10:08:31;;;;;;;0.82;0.80;;;15.60;99.90;;;;;;5058583;28;20025;-65
2021/11/13 10:11:09;;;;;;;0.80;0.73;;;15.50;99.90;;;;;;5058353;28;20113;-65
2021/11/13 10:13:37;;;;;;;0.80;0.80;;;15.40;99.90;;;;;;5058187;28;20021;-65
2021/11/13 10:16:28;;;;;;;0.65;0.65;;;15.70;99.90;;;;;;5058166;28;20056;-65
2021/11/13 10:18:55;;;;;;;2.63;0.80;;;16.00;99.90;;;;;;5055433;28;20051;-65
2021/11/13 10:21:27;;;;;;;0.60;0.60;;;16.20;99.90;;;;;;5058109;28;20028;-65
2021/11/13 10:23:59;;;;;;;0.98;0.60;;;16.30;99.90;;;;;;5058019;28;20388;-65
2021/11/13 10:26:34;;;;;;;0.85;0.63;;;16.40;99.90;;;;;;5058112;28;20028;-65
2021/11/13 10:29:07;;;;;;;1.05;0.60;;;16.30;99.90;;;;;;5057922;28;20035;-65
2021/11/13 10:31:42;;;;;;;0.43;0.43;;;16.10;99.90;;;;;;5058328;28;20032;-65
2021/11/13 10:34:14;;;;;;;0.50;0.50;;;16.10;99.90;;;;;;5057755;28;20060;-65
2021/11/13 10:36:52;;;;;;;0.85;0.68;;;15.90;99.90;;;;;;5057398;28;20416;-65
2021/11/13 10:39:21;;;;;;;0.80;0.77;;;15.60;99.90;;;;;;5057840;28;20028;-65
2021/11/13 10:41:49;;;;;;;0.70;0.68;;;15.30;99.90;;;;;;5057379;28;20393;-65
2021/11/13 10:44:22;;;;;;;1.50;0.80;;;14.90;99.90;;;;;;5057553;28;20029;-66
2021/11/13 10:46:48;;;;;;;0.60;0.60;;;14.90;99.90;;;;;;5055566;28;20462;-65
2021/11/13 10:49:15;;;;;;;0.98;0.80;;;14.80;99.90;;;;;;5056208;28;20055;-65
2021/11/13 10:51:58;;;;;;;0.68;0.68;;;14.90;99.90;;;;;;5057224;28;20396;-65
2021/11/13 10:54:24;;;;;;;0.60;0.57;;;15.20;99.90;;;;;;5056503;28;20028;-65
2021/11/13 10:56:54;;;;;;;0.80;0.80;;;15.50;99.90;;;;;;5057155;28;20024;-65
2021/11/13 10:59:30;;;;;;;1.65;0.80;;;15.60;99.90;;;;;;5057309;28;20060;-65
2021/11/13 11:02:03;;;;;;;0.67;0.67;;;15.40;99.90;;;;;;5057716;28;20024;-66
2021/11/13 11:04:32;;;;;;;1.20;0.80;;;15.20;99.90;;;;;;5057333;28;20786;-68
2021/11/13 11:07:08;;;;;;;1.15;0.70;;;15.10;99.90;;;;;;5055723;28;20497;-67
2021/11/13 11:09:37;;;;;;;1.33;0.80;;;14.80;99.90;;;;;;5057230;28;20555;-67
2021/11/13 11:12:15;;;;;;;0.60;0.60;;;14.70;99.90;;;;;;5057421;28;20021;-67
2021/11/13 11:14:50;;;;;;;1.13;0.80;;;14.40;99.90;;;;;;5056730;28;20078;-67
2021/11/13 11:17:24;;;;;;;0.68;0.68;;;14.30;99.90;;;;;;5049083;28;20028;-67
2021/11/13 11:19:51;;;;;;;0.68;0.60;;;14.10;99.90;;;;;;5056721;28;20066;-67
2021/11/13 11:22:20;;;;;;;1.80;0.95;;;;;;;;;;5056797;28;20481;-67
2021/11/13 11:24:58;;;;;;;1.02;0.80;;;14.10;99.90;;;;;;5055565;28;20025;-67
2021/11/13 11:27:34;;;;;;;0.90;0.85;;;14.40;99.90;;;;;;5056783;28;20040;-67
2021/11/13 11:30:08;;;;;;;1.00;0.90;;;14.40;99.90;;;;;;5056917;28;20032;-67
2021/11/13 11:32:44;;;;;;;1.35;1.15;;;14.30;99.90;;;;;;5056962;28;20033;-67
2021/11/13 11:35:16;;;;;;;1.00;0.90;;;14.30;99.90;;;;;;5056805;28;20036;-67
2021/11/13 11:37:45;;;;;;;1.30;1.20;;;14.80;99.90;;;;;;5055224;28;20049;-67
2021/11/13 11:40:14;;;;;;;1.50;1.10;;;15.30;99.90;;;;;;5056619;28;20020;-68
2021/11/13 11:42:44;;;;;;;1.75;0.95;;;15.80;99.90;;;;;;5056848;28;20021;-67
2021/11/13 11:45:13;;;;;;;2.67;0.73;;;16.20;99.90;;;;;;5056822;28;20063;-68
2021/11/13 11:47:43;;;;;;;2.58;0.70;;;16.20;99.90;;;;;;5056720;28;20067;-67
2021/11/13 11:50:12;;;;;;;0.80;0.80;;;15.90;99.90;;;;;;5056624;28;20031;-68
2021/11/13 11:52:43;;;;;;;2.85;0.80;;;16.20;99.90;;;;;;5056568;28;20374;-68
2021/11/13 11:55:12;;;;;;;1.98;0.70;;;16.20;99.90;;;;;;5056608;28;20032;-68
2021/11/13 11:57:43;;;;;;;2.83;0.80;;;16.00;99.90;;;;;;5056689;28;20082;-67
2021/11/13 12:00:20;;;;;;;2.78;0.73;;;15.70;99.90;;;;;;5056491;28;20092;-68
2021/11/13 12:02:52;;;;;;;0.60;0.60;;;15.50;99.90;;;;;;5056732;28;20025;-67
2021/11/13 12:05:20;;;;;;;3.08;0.80;;;15.60;99.90;;;;;;5057188;28;20039;-67
2021/11/13 12:07:47;;;;;;;0.57;0.57;;;15.80;99.90;;;;;;5060528;28;20143;-67
2021/11/13 12:10:22;;;;;;;1.33;0.75;;;16.40;99.90;;;;;;5060697;28;20025;-68
2021/11/13 12:13:07;;;;;;;1.80;1.23;;;16.40;99.90;;;;;;5060331;28;20025;-67
2021/11/13 12:15:48;;;;;;;1.60;1.10;;;15.60;99.90;;;;;;5060548;28;20071;-68
2021/11/13 12:18:21;;;;;;;0.80;0.80;;;15.40;99.90;;;;;;5060570;28;20083;-68
2021/11/13 12:21:11;;;;;;;1.98;0.90;;;15.30;99.90;;;;;;5060259;28;20023;-67
2021/11/13 12:23:49;;;;;;;1.92;1.00;;;15.30;99.90;;;;;;5060367;28;20052;-67
2021/11/13 12:26:32;;;;;;;0.75;0.75;;;15.70;99.90;;;;;;5060231;28;20373;-67
2021/11/13 12:29:01;;;;;;;1.17;0.85;;;15.80;99.90;;;;;;5059804;28;20519;-67
2021/11/13 12:31:29;;;;;;;2.50;0.80;;;16.20;99.90;;;;;;5060281;28;20036;-67
2021/11/13 12:34:01;;;;;;;2.22;1.00;;;16.00;99.90;;;;;;5060041;28;20025;-67
2021/11/13 12:37:01;;;;;;;1.80;0.60;;;16.10;99.90;;;;;;5059728;28;20412;-68
2021/11/13 12:39:43;;;;;;;0.80;0.80;;;16.10;99.90;;;;;;5060090;28;20037;-68
2021/11/13 12:42:11;;;;;;;0.80;0.70;;;16.60;99.90;;;;;;5059986;28;20420;-67
2021/11/13 12:44:44;;;;;;;0.70;0.70;;;17.00;99.90;;;;;;5059576;28;20021;-67
2021/11/13 12:47:16;;;;;;;0.70;0.70;;;17.10;99.90;;;;;;5059819;28;20023;-67
2021/11/13 12:49:46;;;;;;;1.58;0.70;;;17.20;99.90;;;;;;5060018;28;20021;-67
2021/11/13 12:52:20;;;;;;;3.05;0.68;;;16.80;99.90;;;;;;5059588;28;20017;-67
2021/11/13 12:54:45;;;;;;;0.50;0.50;;;16.40;99.90;;;;;;5059673;28;20036;-67
2021/11/13 12:57:23;;;;;;;1.65;0.80;;;;;;;;;;5059855;28;20021;-67